PWSweather.com
Personal Weather Stations
Station Observations
PITCARMI1
La Serra, CarmignanoIT 59015

La SerraCarmignanoIT 59015

Lat: 43.804429, Lon: 11.027222

Elevation: 525

Station Type: Davis Vantage Vue

http://www.meteocarmignano.it

High Low Average
Temperature 58.6°F14.8°F 48.4°F9.1°F 52.7°F11.5°F
Dew Point 55.0°F12.8°F 47.3°F8.5°F 51.2°F10.7°F
Winds 2.3 mph ENE3.7 mph ENE Calm Calm 0.1 mph 0.2 mph
Wind Gusts 3.5 mph5.6 mph -- 0.3 mph0.5 mph
Humidity 96% 86% 95%
Pressure 30.26 in1024.70 in 30.16 in1021.30 in -
Precipitation 0.02 in0.50 in - -
Hour Temp Dew Point Humidity Winds Wind Gusts Pressure Precip Precip Rate Daily Precip Total
12:00 AM 53.2°F11.8°C 51.8°F11.0°C 95% Calm Calm -- 30.26 in1024.7 mb 0.00 in0.0 mm 0.00 in/hr0.0 mm/hr 0.00 in0.0 mm
12:30 AM 53.0°F11.7°C 51.6°F10.9°C 95% Calm Calm -- 30.25 in1024.4 mb 0.00 in0.0 mm 0.00 in/hr0.0 mm/hr 0.00 in0.0 mm
01:00 AM 52.8°F11.6°C 51.4°F10.8°C 95% Calm Calm -- 30.25 in1024.4 mb 0.00 in0.0 mm 0.00 in/hr0.0 mm/hr 0.00 in0.0 mm
01:30 AM 52.9°F11.6°C 51.5°F10.8°C 95% Calm Calm 1.2 mph1.9 kmh 30.25 in1024.4 mb 0.00 in0.0 mm 0.00 in/hr0.0 mm/hr 0.00 in0.0 mm
02:00 AM 52.2°F11.2°C 50.8°F10.4°C 95% Calm Calm -- 30.24 in1024.0 mb 0.00 in0.0 mm 0.00 in/hr0.0 mm/hr 0.00 in0.0 mm
02:30 AM 52.4°F11.3°C 51.3°F10.7°C 96% Calm Calm -- 30.24 in1024.0 mb 0.01 in0.3 mm 0.02 in/hr0.5 mm/hr 0.01 in0.3 mm
03:00 AM 52.0°F11.1°C 50.6°F10.3°C 95% Calm Calm -- 30.24 in1024.0 mb 0.00 in0.0 mm 0.00 in/hr0.0 mm/hr 0.01 in0.3 mm
03:30 AM 51.8°F11.0°C 50.7°F10.4°C 96% Calm Calm -- 30.23 in1023.7 mb 0.00 in0.0 mm 0.00 in/hr0.0 mm/hr 0.01 in0.3 mm
04:00 AM 50.9°F10.5°C 49.5°F9.7°C 95% Calm Calm -- 30.23 in1023.7 mb 0.00 in0.0 mm 0.00 in/hr0.0 mm/hr 0.01 in0.3 mm
04:30 AM 50.1°F10.1°C 49.0°F9.4°C 96% Calm Calm 1.2 mph1.9 kmh 30.23 in1023.7 mb 0.00 in0.0 mm 0.00 in/hr0.0 mm/hr 0.01 in0.3 mm
05:00 AM 49.3°F9.6°C 48.2°F9.0°C 96% Calm Calm -- 30.23 in1023.7 mb 0.00 in0.0 mm 0.00 in/hr0.0 mm/hr 0.01 in0.3 mm
05:30 AM 49.4°F9.7°C 48.3°F9.1°C 96% Calm Calm -- 30.23 in1023.7 mb 0.00 in0.0 mm 0.00 in/hr0.0 mm/hr 0.01 in0.3 mm
06:00 AM 49.3°F9.6°C 48.2°F9.0°C 96% Calm Calm -- 30.23 in1023.7 mb 0.00 in0.0 mm 0.00 in/hr0.0 mm/hr 0.01 in0.3 mm
06:30 AM 48.9°F9.4°C 47.8°F8.8°C 96% Calm Calm -- 30.23 in1023.7 mb 0.00 in0.0 mm 0.00 in/hr0.0 mm/hr 0.01 in0.3 mm
07:00 AM 48.4°F9.1°C 47.3°F8.5°C 96% Calm Calm -- 30.23 in1023.7 mb 0.00 in0.0 mm 0.00 in/hr0.0 mm/hr 0.01 in0.3 mm
07:30 AM 48.8°F9.3°C 47.7°F8.7°C 96% Calm Calm -- 30.23 in1023.7 mb 0.00 in0.0 mm 0.00 in/hr0.0 mm/hr 0.01 in0.3 mm
08:00 AM 48.9°F9.4°C 47.8°F8.8°C 96% Calm Calm -- 30.23 in1023.7 mb 0.00 in0.0 mm 0.00 in/hr0.0 mm/hr 0.01 in0.3 mm
08:30 AM 48.7°F9.3°C 47.6°F8.7°C 96% Calm Calm -- 30.24 in1024.0 mb 0.00 in0.0 mm 0.00 in/hr0.0 mm/hr 0.01 in0.3 mm
09:00 AM 49.7°F9.8°C 48.6°F9.2°C 96% Calm Calm -- 30.23 in1023.7 mb 0.00 in0.0 mm 0.00 in/hr0.0 mm/hr 0.01 in0.3 mm
09:30 AM 50.8°F10.4°C 49.7°F9.8°C 96% Calm Calm -- 30.23 in1023.7 mb 0.00 in0.0 mm 0.00 in/hr0.0 mm/hr 0.01 in0.3 mm
10:00 AM 51.1°F10.6°C 50.0°F10.0°C 96% Calm Calm -- 30.24 in1024.0 mb 0.00 in0.0 mm 0.00 in/hr0.0 mm/hr 0.01 in0.3 mm
10:30 AM 52.2°F11.2°C 51.1°F10.6°C 96% Calm Calm -- 30.24 in1024.0 mb 0.00 in0.0 mm 0.00 in/hr0.0 mm/hr 0.01 in0.3 mm
11:00 AM 53.9°F12.2°C 52.8°F11.6°C 96% Calm Calm -- 30.23 in1023.7 mb 0.01 in0.3 mm 0.02 in/hr0.5 mm/hr 0.02 in0.5 mm
11:30 AM 53.8°F12.1°C 52.7°F11.5°C 96% Calm Calm -- 30.23 in1023.7 mb 0.00 in0.0 mm 0.00 in/hr0.0 mm/hr 0.02 in0.5 mm
12:00 PM 53.4°F11.9°C 52.0°F11.1°C 95% Calm Calm -- 30.22 in1023.4 mb 0.00 in0.0 mm 0.00 in/hr0.0 mm/hr 0.02 in0.5 mm
12:30 PM 53.3°F11.8°C 51.9°F11.1°C 95% Calm Calm -- 30.21 in1023.0 mb 0.00 in0.0 mm 0.00 in/hr0.0 mm/hr 0.02 in0.5 mm
01:00 PM 55.5°F13.1°C 54.1°F12.3°C 95% Calm Calm -- 30.20 in1022.7 mb 0.00 in0.0 mm 0.00 in/hr0.0 mm/hr 0.02 in0.5 mm
01:30 PM 56.7°F13.7°C 55.0°F12.8°C 94% Calm Calm -- 30.19 in1022.4 mb 0.00 in0.0 mm 0.00 in/hr0.0 mm/hr 0.02 in0.5 mm
02:00 PM 57.4°F14.1°C 54.8°F12.7°C 91% Calm Calm -- 30.18 in1022.0 mb 0.00 in0.0 mm 0.00 in/hr0.0 mm/hr 0.02 in0.5 mm
02:30 PM 58.6°F14.8°C 54.7°F12.6°C 87% Calm Calm 1.2 mph1.9 kmh 30.17 in1021.7 mb 0.00 in0.0 mm 0.00 in/hr0.0 mm/hr 0.02 in0.5 mm
03:00 PM 58.3°F14.6°C 54.1°F12.3°C 86% Calm Calm -- 30.17 in1021.7 mb 0.00 in0.0 mm 0.00 in/hr0.0 mm/hr 0.02 in0.5 mm
03:30 PM 57.1°F13.9°C 53.9°F12.2°C 89% 2.3 mph NE3.7 kmh NE 3.5 mph5.6 kmh 30.17 in1021.7 mb 0.00 in0.0 mm 0.00 in/hr0.0 mm/hr 0.02 in0.5 mm
04:00 PM 55.3°F12.9°C 53.3°F11.8°C 93% Calm Calm -- 30.17 in1021.7 mb 0.00 in0.0 mm 0.00 in/hr0.0 mm/hr 0.02 in0.5 mm
04:30 PM 54.7°F12.6°C 52.7°F11.5°C 93% Calm Calm -- 30.16 in1021.3 mb 0.00 in0.0 mm 0.00 in/hr0.0 mm/hr 0.02 in0.5 mm
05:00 PM 54.4°F12.4°C 52.7°F11.5°C 94% Calm Calm -- 30.17 in1021.7 mb 0.00 in0.0 mm 0.00 in/hr0.0 mm/hr 0.02 in0.5 mm
05:30 PM 54.0°F12.2°C 52.3°F11.3°C 94% Calm Calm -- 30.17 in1021.7 mb 0.00 in0.0 mm 0.00 in/hr0.0 mm/hr 0.02 in0.5 mm
09:30 PM 53.3°F11.8°C 51.9°F11.1°C 95% Calm Calm -- 30.18 in1022.0 mb 0.00 in0.0 mm 0.00 in/hr0.0 mm/hr 0.02 in0.5 mm
10:00 PM 53.1°F11.7°C 51.7°F10.9°C 95% Calm Calm -- 30.18 in1022.0 mb 0.00 in0.0 mm 0.00 in/hr0.0 mm/hr 0.02 in0.5 mm
10:30 PM 53.5°F11.9°C 52.1°F11.2°C 95% Calm Calm -- 30.18 in1022.0 mb 0.00 in0.0 mm 0.00 in/hr0.0 mm/hr 0.02 in0.5 mm
11:00 PM 54.3°F12.4°C 52.3°F11.3°C 93% 2.3 mph ENE3.7 kmh ENE 2.3 mph3.7 kmh 30.19 in1022.4 mb 0.00 in0.0 mm 0.00 in/hr0.0 mm/hr 0.02 in0.5 mm
11:30 PM 53.9°F12.2°C 52.2°F11.2°C 94% 1.2 mph E1.9 kmh E 2.3 mph3.7 kmh 30.19 in1022.4 mb 0.00 in0.0 mm 0.00 in/hr0.0 mm/hr 0.02 in0.5 mm